createdAt,value
2023-02-15T00:02:03.790Z,24.87
2023-02-15T00:04:47.208Z,29.40
2023-02-15T00:07:20.077Z,28.37
2023-02-15T00:09:48.043Z,31.13
2023-02-15T00:12:17.094Z,27.70
2023-02-15T00:14:44.362Z,24.93
2023-02-15T00:17:11.412Z,27.63
2023-02-15T00:19:38.410Z,26.20
2023-02-15T00:22:05.701Z,24.73
2023-02-15T00:24:33.030Z,24.53
2023-02-15T00:27:00.436Z,24.80
2023-02-15T00:29:29.072Z,24.23
2023-02-15T00:31:56.380Z,29.07
2023-02-15T00:34:28.700Z,27.97
2023-02-15T00:36:55.928Z,30.73
2023-02-15T00:39:24.829Z,26.60
2023-02-15T00:41:51.793Z,27.73
2023-02-15T00:44:18.756Z,26.60
2023-02-15T00:46:46.086Z,28.33
2023-02-15T00:49:13.029Z,27.43
2023-02-15T00:51:40.664Z,26.80
2023-02-15T00:54:08.179Z,30.30
2023-02-15T00:56:35.212Z,26.80
2023-02-15T00:59:02.652Z,26.10
2023-02-15T01:01:29.537Z,32.77
2023-02-15T01:03:56.579Z,30.97
2023-02-15T01:06:23.604Z,32.67
2023-02-15T01:08:50.571Z,24.40
2023-02-15T01:11:24.690Z,27.17
2023-02-15T01:13:57.204Z,28.37
2023-02-15T01:16:27.259Z,28.17
2023-02-15T01:18:55.721Z,27.93
2023-02-15T01:21:25.459Z,25.80
2023-02-15T01:23:52.656Z,30.63
2023-02-15T01:26:21.124Z,30.97
2023-02-15T01:28:48.777Z,28.50
2023-02-15T01:31:18.731Z,25.70
2023-02-15T01:33:47.217Z,28.03
2023-02-15T01:36:15.315Z,28.77
2023-02-15T01:38:42.849Z,34.80
2023-02-15T01:41:23.732Z,28.87
2023-02-15T01:43:59.777Z,26.97
2023-02-15T01:46:41.904Z,31.00
2023-02-15T01:49:29.468Z,30.60
2023-02-15T01:51:57.049Z,30.97
2023-02-15T01:54:35.438Z,25.90
2023-02-15T01:57:23.797Z,26.40
2023-02-15T01:59:58.038Z,28.47
2023-02-15T02:02:26.023Z,32.90
2023-02-15T02:04:59.354Z,31.70
2023-02-15T02:07:30.334Z,26.87
2023-02-15T02:09:57.615Z,24.60
2023-02-15T02:12:26.000Z,31.77
2023-02-15T02:14:53.866Z,27.00
2023-02-15T02:17:37.158Z,24.23
2023-02-15T02:20:49.385Z,27.30
2023-02-15T02:23:19.215Z,31.10
2023-02-15T02:26:43.353Z,26.27
2023-02-15T02:30:07.418Z,22.63
2023-02-15T02:33:16.926Z,22.63
2023-02-15T02:36:03.117Z,21.50
2023-02-15T02:39:01.636Z,27.23
2023-02-15T02:41:43.216Z,31.20
2023-02-15T02:44:44.511Z,21.77
2023-02-15T02:47:25.206Z,22.77
2023-02-15T02:50:06.063Z,23.30
2023-02-15T02:52:44.873Z,22.10
2023-02-15T02:55:29.946Z,23.40
2023-02-15T02:58:08.095Z,24.67
2023-02-15T03:00:45.767Z,24.83
2023-02-15T03:03:39.260Z,19.17
2023-02-15T03:06:18.954Z,24.53
2023-02-15T03:08:52.330Z,30.57
2023-02-15T03:11:19.645Z,22.90
2023-02-15T03:13:49.576Z,22.13
2023-02-15T03:16:28.258Z,29.83
2023-02-15T03:19:20.340Z,27.20
2023-02-15T03:21:58.552Z,19.63
2023-02-15T03:24:33.537Z,27.93
2023-02-15T03:27:04.179Z,21.70
2023-02-15T03:29:32.857Z,21.27
2023-02-15T03:32:04.491Z,30.43
2023-02-15T03:34:31.500Z,23.70
2023-02-15T03:37:22.833Z,25.17
2023-02-15T03:40:31.246Z,29.07
2023-02-15T03:43:12.389Z,20.97
2023-02-15T03:45:55.468Z,29.50
2023-02-15T03:48:38.629Z,26.43
2023-02-15T03:51:29.956Z,25.07
2023-02-15T03:53:58.399Z,27.30
2023-02-15T03:56:25.595Z,23.13
2023-02-15T03:59:11.362Z,26.33
2023-02-15T04:01:58.883Z,22.57
2023-02-15T04:04:43.379Z,24.30
2023-02-15T04:07:10.866Z,21.73
2023-02-15T04:09:56.540Z,19.70
2023-02-15T04:12:24.127Z,27.53
2023-02-15T04:15:10.028Z,24.77
2023-02-15T04:17:39.799Z,22.20
2023-02-15T04:20:26.872Z,19.73
2023-02-15T04:23:12.570Z,28.10
2023-02-15T04:25:39.908Z,25.33
2023-02-15T04:28:08.615Z,29.97
2023-02-15T04:30:36.118Z,26.03
2023-02-15T04:33:03.429Z,22.47
2023-02-15T04:35:32.570Z,23.40
2023-02-15T04:37:59.943Z,27.37
2023-02-15T04:40:26.903Z,30.10
2023-02-15T04:42:54.162Z,56.37
2023-02-15T04:45:21.454Z,128.00
2023-02-15T04:47:48.776Z,145.20
2023-02-15T04:50:16.188Z,111.40
2023-02-15T04:52:43.557Z,31.80
2023-02-15T04:55:11.086Z,25.70
2023-02-15T04:57:37.966Z,27.93
2023-02-15T05:00:05.774Z,20.73
2023-02-15T05:02:32.679Z,25.10
2023-02-15T05:05:00.005Z,24.17
2023-02-15T05:07:27.279Z,23.10
2023-02-15T05:09:54.198Z,26.10
2023-02-15T05:12:21.633Z,25.33
2023-02-15T05:14:48.897Z,21.20
2023-02-15T05:17:16.203Z,21.70
2023-02-15T05:19:43.484Z,21.07
2023-02-15T05:22:10.791Z,23.60
2023-02-15T05:24:56.424Z,22.83
2023-02-15T05:27:42.275Z,26.77
2023-02-15T05:30:12.557Z,21.90
2023-02-15T05:32:40.559Z,23.03
2023-02-15T05:35:08.638Z,23.93
2023-02-15T05:37:36.047Z,23.70
2023-02-15T05:40:03.256Z,24.83
2023-02-15T05:42:30.563Z,28.93
2023-02-15T05:44:57.793Z,25.20
2023-02-15T05:47:25.145Z,26.63
2023-02-15T05:49:52.566Z,23.23
2023-02-15T05:52:19.952Z,27.80
2023-02-15T05:54:47.354Z,25.77
2023-02-15T05:57:15.057Z,28.73
2023-02-15T05:59:41.997Z,27.60
2023-02-15T06:02:12.394Z,21.70
2023-02-15T06:04:39.678Z,95.87
2023-02-15T06:07:06.957Z,59.73
2023-02-15T06:09:34.464Z,30.40
2023-02-15T06:12:01.904Z,27.03
2023-02-15T06:14:29.201Z,24.03
2023-02-15T06:16:56.538Z,24.80
2023-02-15T06:19:23.722Z,25.70
2023-02-15T06:21:51.439Z,24.17
2023-02-15T06:24:18.451Z,24.17
2023-02-15T06:26:45.741Z,21.83
2023-02-15T06:29:13.016Z,27.87
2023-02-15T06:31:40.519Z,27.20
2023-02-15T06:34:07.826Z,29.03
2023-02-15T06:36:34.699Z,30.47
2023-02-15T06:39:03.799Z,33.30
2023-02-15T06:41:30.820Z,26.20
2023-02-15T06:43:58.376Z,22.33
2023-02-15T06:46:25.734Z,26.70
2023-02-15T06:48:52.726Z,27.97
2023-02-15T06:51:20.040Z,25.23
2023-02-15T06:53:47.330Z,24.37
2023-02-15T06:56:14.666Z,27.50
2023-02-15T06:58:42.863Z,28.10
2023-02-15T07:01:10.629Z,29.13
2023-02-15T07:03:37.952Z,27.80
2023-02-15T07:06:09.074Z,26.07
2023-02-15T07:08:37.484Z,24.60
2023-02-15T07:11:23.909Z,27.50
2023-02-15T07:13:50.914Z,24.80
2023-02-15T07:16:17.790Z,28.27
2023-02-15T07:18:45.107Z,23.50
2023-02-15T07:21:12.088Z,20.90
2023-02-15T07:23:40.552Z,24.93
2023-02-15T07:26:08.229Z,24.30
2023-02-15T07:28:36.358Z,26.87
2023-02-15T07:31:04.691Z,20.70
2023-02-15T07:33:33.007Z,30.73
2023-02-15T07:36:03.738Z,21.23
2023-02-15T07:38:37.206Z,18.47
2023-02-15T07:41:10.171Z,22.77
2023-02-15T07:43:41.396Z,25.00
2023-02-15T07:46:12.539Z,20.33
2023-02-15T07:48:40.928Z,22.33
2023-02-15T07:51:10.375Z,15.73
2023-02-15T07:53:38.746Z,21.93
2023-02-15T07:56:11.539Z,22.80
2023-02-15T07:58:53.816Z,23.10
2023-02-15T08:01:36.242Z,20.40
2023-02-15T08:04:05.184Z,20.80
2023-02-15T08:06:35.991Z,23.90
2023-02-15T08:09:07.631Z,23.20
2023-02-15T08:11:37.873Z,15.77
2023-02-15T08:14:18.967Z,24.37
2023-02-15T08:16:53.727Z,25.13
2023-02-15T08:19:25.961Z,17.13
2023-02-15T08:21:58.501Z,22.07
2023-02-15T08:24:30.096Z,16.60
2023-02-15T08:26:57.926Z,17.63
2023-02-15T08:29:28.018Z,17.23
2023-02-15T08:32:03.191Z,19.80
2023-02-15T08:34:35.512Z,16.03
2023-02-15T08:37:02.502Z,27.47
2023-02-15T08:39:29.862Z,14.93
2023-02-15T08:41:56.880Z,11.73
2023-02-15T08:44:23.969Z,17.30
2023-02-15T08:46:51.392Z,15.80
2023-02-15T08:49:25.045Z,15.53
2023-02-15T08:51:52.429Z,19.03
2023-02-15T08:54:22.143Z,13.77
2023-02-15T08:56:49.468Z,14.83
2023-02-15T08:59:23.174Z,18.20
2023-02-15T09:01:52.774Z,17.30
2023-02-15T09:04:21.301Z,17.27
2023-02-15T09:06:50.776Z,19.10
2023-02-15T09:09:19.770Z,19.43
2023-02-15T09:11:54.600Z,17.80
2023-02-15T09:14:25.973Z,16.87
2023-02-15T09:16:53.897Z,17.73
2023-02-15T09:19:23.358Z,16.57
2023-02-15T09:21:50.407Z,13.27
2023-02-15T09:24:18.673Z,17.97
2023-02-15T09:26:48.926Z,22.80
2023-02-15T09:29:18.307Z,18.17
2023-02-15T09:31:50.013Z,19.90
2023-02-15T09:34:20.602Z,16.97
2023-02-15T09:36:48.996Z,19.40
2023-02-15T09:39:25.038Z,19.60
2023-02-15T09:42:27.496Z,17.00
2023-02-15T09:45:44.299Z,16.93
2023-02-15T09:48:39.896Z,12.03
2023-02-15T09:51:23.334Z,11.67
2023-02-15T09:54:21.103Z,13.07
2023-02-15T09:57:07.213Z,13.63
2023-02-15T09:59:55.878Z,22.63
2023-02-15T10:02:48.082Z,46.30
2023-02-15T10:05:29.812Z,15.40
2023-02-15T10:08:14.438Z,12.60
2023-02-15T10:11:35.711Z,10.50
2023-02-15T10:14:43.795Z,12.50
2023-02-15T10:17:42.900Z,16.90
2023-02-15T10:20:35.270Z,13.73
2023-02-15T10:23:26.905Z,20.37
2023-02-15T10:26:12.421Z,18.87
2023-02-15T10:28:55.131Z,12.60
2023-02-15T10:31:32.403Z,13.17
2023-02-15T10:34:19.949Z,15.40
2023-02-15T10:37:10.864Z,11.57
2023-02-15T10:40:14.022Z,12.57
2023-02-15T10:43:18.484Z,10.73
2023-02-15T10:46:15.416Z,15.17
2023-02-15T10:49:46.896Z,11.47
2023-02-15T10:52:34.868Z,10.40
2023-02-15T10:55:49.616Z,10.27
2023-02-15T10:58:39.590Z,7.73
2023-02-15T11:01:21.001Z,10.20
2023-02-15T11:04:05.792Z,9.60
2023-02-15T11:06:34.726Z,15.13
2023-02-15T11:09:10.625Z,13.20
2023-02-15T11:11:41.509Z,16.70
2023-02-15T11:14:40.071Z,43.63
2023-02-15T11:17:15.609Z,23.57
2023-02-15T11:20:03.918Z,25.30
2023-02-15T11:22:33.232Z,22.00
2023-02-15T11:25:03.153Z,17.50
2023-02-15T11:27:36.308Z,14.77
2023-02-15T11:30:16.605Z,13.90
2023-02-15T11:32:50.198Z,16.20
2023-02-15T11:35:33.248Z,13.17
2023-02-15T11:38:23.331Z,12.37
2023-02-15T11:41:04.812Z,11.90
2023-02-15T11:44:02.050Z,11.30
2023-02-15T11:46:29.705Z,8.73
2023-02-15T11:48:57.013Z,15.13
2023-02-15T11:51:24.560Z,20.50
2023-02-15T11:53:52.593Z,26.37
2023-02-15T11:56:27.373Z,10.93
2023-02-15T11:59:04.539Z,10.50
2023-02-15T12:01:43.965Z,10.10
2023-02-15T12:04:36.885Z,11.20
2023-02-15T12:07:33.414Z,9.53
2023-02-15T12:10:23.621Z,12.60
2023-02-15T12:13:12.254Z,11.50
2023-02-15T12:15:43.487Z,11.23
2023-02-15T12:18:41.780Z,12.10
2023-02-15T12:21:16.220Z,11.50
2023-02-15T12:23:55.466Z,10.50
2023-02-15T12:26:29.725Z,10.53
2023-02-15T12:29:03.038Z,10.77
2023-02-15T12:31:38.429Z,10.80
2023-02-15T12:34:14.338Z,10.47
2023-02-15T12:36:51.782Z,19.10
2023-02-15T12:39:36.991Z,10.93
2023-02-15T12:42:17.352Z,11.10
2023-02-15T12:45:27.164Z,10.30
2023-02-15T12:48:22.218Z,10.87
2023-02-15T12:50:55.293Z,10.57
2023-02-15T12:53:33.279Z,10.40
2023-02-15T12:56:07.259Z,10.70
2023-02-15T12:58:36.357Z,8.63
2023-02-15T13:01:22.194Z,8.70
2023-02-15T13:04:02.734Z,8.93
2023-02-15T13:06:34.178Z,8.50
2023-02-15T13:09:17.891Z,10.20
2023-02-15T13:11:46.340Z,9.80
2023-02-15T13:14:29.844Z,9.10
2023-02-15T13:17:01.680Z,9.23
2023-02-15T13:19:38.314Z,10.13
2023-02-15T13:22:16.331Z,9.77
2023-02-15T13:25:04.936Z,8.57
2023-02-15T13:27:41.261Z,9.00
2023-02-15T13:30:33.908Z,9.60
2023-02-15T13:33:06.429Z,9.60
2023-02-15T13:36:18.885Z,9.70
2023-02-15T13:39:18.657Z,9.53
2023-02-15T13:41:59.579Z,11.40
2023-02-15T13:45:06.784Z,10.13
2023-02-15T13:47:55.752Z,10.93
2023-02-15T13:50:59.802Z,11.70
2023-02-15T13:54:03.915Z,10.60
2023-02-15T13:57:35.115Z,10.40
2023-02-15T14:00:32.861Z,9.77
2023-02-15T14:03:44.492Z,12.70
2023-02-15T14:06:36.411Z,10.03
2023-02-15T14:09:48.474Z,10.03
2023-02-15T14:12:30.262Z,10.00
2023-02-15T14:15:10.988Z,9.30
2023-02-15T14:18:27.843Z,9.80
2023-02-15T14:21:04.523Z,13.13
2023-02-15T14:23:54.779Z,12.70
2023-02-15T14:26:48.602Z,10.50
2023-02-15T14:29:52.342Z,9.83
2023-02-15T14:32:46.392Z,10.13
2023-02-15T14:35:20.490Z,9.50
2023-02-15T14:38:03.761Z,12.50
2023-02-15T14:41:02.501Z,9.90
2023-02-15T14:44:03.283Z,11.80
2023-02-15T14:47:12.112Z,11.40
2023-02-15T14:49:40.920Z,12.53
2023-02-15T14:52:13.597Z,13.60
2023-02-15T14:54:40.364Z,11.13
2023-02-15T14:57:07.352Z,12.70
2023-02-15T14:59:59.691Z,13.63
2023-02-15T15:02:49.856Z,11.67
2023-02-15T15:05:36.190Z,14.20
2023-02-15T15:08:05.862Z,12.67
2023-02-15T15:10:45.281Z,13.73
2023-02-15T15:13:31.052Z,20.90
2023-02-15T15:16:29.525Z,20.17
2023-02-15T15:18:57.700Z,19.33
2023-02-15T15:21:49.276Z,16.63
2023-02-15T15:24:37.961Z,16.60
2023-02-15T15:27:38.945Z,18.00
2023-02-15T15:30:26.103Z,17.23
2023-02-15T15:32:55.783Z,16.67
2023-02-15T15:36:25.591Z,19.53
2023-02-15T15:39:33.032Z,21.60
2023-02-15T15:42:13.688Z,25.87
2023-02-15T15:45:20.361Z,23.03
2023-02-15T15:48:20.728Z,26.90
2023-02-15T15:50:49.617Z,31.43
2023-02-15T15:53:25.691Z,28.10
2023-02-15T15:56:02.221Z,26.90
2023-02-15T15:58:32.277Z,30.00
2023-02-15T16:01:14.606Z,33.73
2023-02-15T16:03:55.187Z,30.90
2023-02-15T16:06:36.120Z,32.73
2023-02-15T16:09:24.984Z,27.33
2023-02-15T16:12:06.058Z,29.83
2023-02-15T16:14:41.784Z,33.70
2023-02-15T16:17:21.709Z,32.60
2023-02-15T16:19:48.705Z,32.70
2023-02-15T16:22:22.165Z,29.27
2023-02-15T16:24:58.140Z,29.27
2023-02-15T16:27:33.890Z,30.50
2023-02-15T16:30:20.002Z,25.93
2023-02-15T16:32:47.267Z,29.57
2023-02-15T16:35:18.157Z,30.63
2023-02-15T16:37:46.431Z,30.63
2023-02-15T16:40:56.979Z,27.70
2023-02-15T16:43:27.790Z,25.07
2023-02-15T16:46:06.151Z,24.93
2023-02-15T16:48:35.467Z,26.27
2023-02-15T16:51:02.903Z,22.57
2023-02-15T16:53:30.903Z,21.90
2023-02-15T16:56:05.411Z,22.90
2023-02-15T16:58:47.064Z,20.17
2023-02-15T17:01:16.708Z,18.80
2023-02-15T17:03:43.984Z,17.63
2023-02-15T17:06:22.714Z,21.23
2023-02-15T17:08:50.067Z,20.63
2023-02-15T17:11:21.481Z,19.27
2023-02-15T17:14:04.167Z,19.00
2023-02-15T17:16:38.256Z,21.07
2023-02-15T17:19:31.144Z,20.60
2023-02-15T17:22:07.792Z,20.67
2023-02-15T17:24:46.062Z,21.50
2023-02-15T17:27:18.255Z,18.67
2023-02-15T17:29:52.579Z,24.10
2023-02-15T17:32:29.291Z,21.73
2023-02-15T17:35:29.504Z,22.90
2023-02-15T17:38:11.642Z,23.13
2023-02-15T17:40:38.543Z,17.90
2023-02-15T17:43:05.532Z,21.77
2023-02-15T17:45:42.995Z,21.80
2023-02-15T17:48:35.594Z,22.83
2023-02-15T17:51:05.912Z,22.13
2023-02-15T17:53:33.256Z,22.90
2023-02-15T17:56:00.178Z,24.17
2023-02-15T17:58:27.142Z,24.93
2023-02-15T18:01:16.669Z,22.60
2023-02-15T18:04:10.740Z,22.27
2023-02-15T18:07:00.728Z,20.57
2023-02-15T18:09:46.489Z,22.60
2023-02-15T18:12:26.630Z,26.67
2023-02-15T18:14:54.623Z,18.80
2023-02-15T18:17:34.619Z,20.33
2023-02-15T18:20:06.468Z,22.23
2023-02-15T18:22:34.048Z,22.23
2023-02-15T18:25:00.999Z,21.60
2023-02-15T18:27:27.950Z,19.30
2023-02-15T18:29:54.990Z,16.77
2023-02-15T18:32:36.270Z,19.00
2023-02-15T18:35:04.535Z,34.17
2023-02-15T18:37:33.181Z,24.07
2023-02-15T18:40:01.294Z,22.90
2023-02-15T18:42:32.121Z,21.53
2023-02-15T18:45:19.355Z,23.77
2023-02-15T18:47:47.450Z,21.60
2023-02-15T18:50:17.122Z,20.17
2023-02-15T18:52:47.199Z,21.00
2023-02-15T18:55:28.221Z,21.70
2023-02-15T18:57:57.328Z,20.33
2023-02-15T19:00:32.239Z,23.53
2023-02-15T19:03:01.995Z,18.83
2023-02-15T19:05:30.555Z,18.83
2023-02-15T19:08:00.900Z,21.57
2023-02-15T19:10:30.836Z,26.43
2023-02-15T19:12:58.400Z,23.03
2023-02-15T19:15:30.295Z,25.03
2023-02-15T19:17:57.428Z,23.73
2023-02-15T19:20:30.517Z,30.60
2023-02-15T19:23:01.308Z,20.20
2023-02-15T19:25:31.272Z,20.70
2023-02-15T19:27:59.510Z,23.03
2023-02-15T19:30:30.528Z,26.23
2023-02-15T19:32:58.950Z,27.20
2023-02-15T19:35:30.190Z,25.97
2023-02-15T19:38:00.388Z,73.27
2023-02-15T19:40:34.973Z,38.73
2023-02-15T19:43:03.383Z,26.30
2023-02-15T19:45:32.604Z,32.63
2023-02-15T19:48:01.922Z,30.27
2023-02-15T19:50:32.069Z,29.63
2023-02-15T19:52:59.267Z,30.90
2023-02-15T19:55:33.724Z,29.80
2023-02-15T19:58:02.505Z,30.57
2023-02-15T20:00:34.257Z,31.13
2023-02-15T20:03:01.463Z,30.13
2023-02-15T20:05:31.615Z,32.63
2023-02-15T20:07:58.865Z,27.13
2023-02-15T20:10:31.427Z,32.33
2023-02-15T20:12:58.754Z,30.00
2023-02-15T20:15:35.876Z,29.37
2023-02-15T20:18:04.163Z,29.53
2023-02-15T20:20:42.388Z,29.37
2023-02-15T20:23:30.672Z,30.00
2023-02-15T20:26:00.348Z,26.67
2023-02-15T20:28:30.485Z,28.90
2023-02-15T20:30:57.663Z,29.50
2023-02-15T20:33:24.728Z,30.93
2023-02-15T20:35:51.848Z,39.03
2023-02-15T20:38:28.191Z,34.60
2023-02-15T20:41:15.457Z,36.80
2023-02-15T20:43:42.837Z,38.23
2023-02-15T20:46:09.942Z,44.40
2023-02-15T20:48:37.097Z,32.03
2023-02-15T20:51:04.773Z,39.87
2023-02-15T20:53:31.933Z,39.50
2023-02-15T20:55:58.872Z,38.63
2023-02-15T20:58:30.703Z,40.23
2023-02-15T21:00:59.110Z,41.57
2023-02-15T21:03:30.897Z,47.70
2023-02-15T21:05:58.904Z,41.50
2023-02-15T21:08:26.959Z,40.70
2023-02-15T21:10:54.392Z,38.60
2023-02-15T21:13:35.252Z,39.23
2023-02-15T21:16:03.240Z,43.00
2023-02-15T21:18:34.285Z,32.67
2023-02-15T21:21:05.073Z,35.80
2023-02-15T21:23:39.703Z,39.83
2023-02-15T21:26:11.915Z,36.00
2023-02-15T21:28:40.296Z,35.47
2023-02-15T21:31:22.064Z,38.40
2023-02-15T21:33:50.174Z,29.30
2023-02-15T21:36:21.917Z,32.03
2023-02-15T21:38:49.851Z,31.73
2023-02-15T21:41:39.268Z,31.40
2023-02-15T21:44:42.345Z,32.43
2023-02-15T21:47:42.792Z,31.80
2023-02-15T21:50:39.323Z,31.03
2023-02-15T21:53:09.843Z,26.13
2023-02-15T21:55:36.739Z,27.37
2023-02-15T21:58:04.489Z,26.43
2023-02-15T22:00:31.662Z,26.87
2023-02-15T22:03:00.988Z,23.63
2023-02-15T22:05:33.661Z,28.37
2023-02-15T22:08:01.040Z,25.20
2023-02-15T22:10:32.313Z,27.10
2023-02-15T22:13:02.982Z,27.63
2023-02-15T22:15:35.962Z,29.60
2023-02-15T22:18:03.952Z,25.93
2023-02-15T22:20:31.145Z,25.60
2023-02-15T22:22:58.194Z,26.13
2023-02-15T22:25:27.099Z,30.67
2023-02-15T22:27:54.971Z,25.30
2023-02-15T22:30:25.323Z,27.83
2023-02-15T22:32:53.843Z,27.33
2023-02-15T22:35:28.344Z,26.17
2023-02-15T22:37:55.736Z,26.00
2023-02-15T22:40:29.752Z,28.70
2023-02-15T22:42:58.441Z,25.83
2023-02-15T22:45:28.151Z,25.90
2023-02-15T22:47:58.639Z,24.83
2023-02-15T22:50:33.448Z,22.30
2023-02-15T22:53:02.317Z,24.00
2023-02-15T22:55:33.998Z,27.73
2023-02-15T22:58:01.348Z,24.47
2023-02-15T23:00:32.614Z,27.10
2023-02-15T23:02:59.682Z,24.57
2023-02-15T23:05:30.382Z,31.47
2023-02-15T23:07:57.990Z,25.63
2023-02-15T23:10:26.685Z,21.53
2023-02-15T23:13:15.951Z,30.17
2023-02-15T23:15:48.710Z,25.70
2023-02-15T23:18:20.085Z,25.33
2023-02-15T23:20:52.703Z,27.23
2023-02-15T23:23:29.140Z,20.93
2023-02-15T23:25:57.061Z,24.07
2023-02-15T23:28:38.134Z,27.13
2023-02-15T23:31:20.361Z,27.60
2023-02-15T23:33:48.231Z,28.20
2023-02-15T23:36:34.694Z,24.80
2023-02-15T23:39:34.195Z,27.27
2023-02-15T23:42:13.829Z,30.50
2023-02-15T23:44:42.745Z,24.50
2023-02-15T23:47:50.973Z,29.13
2023-02-15T23:50:28.188Z,27.20
2023-02-15T23:52:57.170Z,28.80
2023-02-15T23:55:36.627Z,25.33
2023-02-15T23:58:16.795Z,26.50
